Time;durP1;ratioP1;P1;durP2;ratioP2;P2;SDS_P1;SDS_P2;PMS_P1;PMS_P2;Temp;Humidity;BMP_temperature;BMP_pressure;BME280_temperature;BME280_humidity;BME280_pressure;Samples;Min_cycle;Max_cycle;Signal;HPM_P1;HPM_P2
2022/01/15 00:02:22;;;;;;;102.88;53.65;;;;;;;8.06;66.53;103380.72;5234742;28;20427;-44
2022/01/15 00:04:55;;;;;;;102.53;54.55;;;;;;;8.10;66.54;103382.28;5241473;28;20456;-43
2022/01/15 00:07:27;;;;;;;103.70;54.92;;;;;;;8.10;66.51;103379.63;5239779;28;20923;-44
2022/01/15 00:09:59;;;;;;;105.05;55.85;;;;;;;8.06;66.60;103380.72;5244643;28;20428;-44
2022/01/15 00:12:38;;;;;;;108.25;56.08;;;;;;;8.04;66.64;103377.28;5253659;28;20442;-49
2022/01/15 00:15:17;;;;;;;102.05;54.45;;;;;;;8.07;66.34;103370.09;5238715;28;20895;-44
2022/01/15 00:17:56;;;;;;;97.90;53.67;;;;;;;8.10;66.47;103369.13;5249118;28;20418;-45
2022/01/15 00:20:32;;;;;;;108.47;54.28;;;;;;;8.09;66.50;103372.69;5246802;28;20394;-45
2022/01/15 00:23:05;;;;;;;104.78;56.72;;;;;;;7.94;66.51;103347.06;5244708;28;20420;-51
2022/01/15 00:25:37;;;;;;;95.80;51.92;;;;;;;8.03;66.57;103367.69;5245764;28;20766;-48
2022/01/15 00:28:09;;;;;;;108.45;53.30;;;;;;;7.96;66.71;103366.25;5248847;28;20416;-45
2022/01/15 00:30:42;;;;;;;105.55;51.90;;;;;;;7.93;66.75;103361.13;5249394;28;20406;-43
2022/01/15 00:33:15;;;;;;;108.93;53.83;;;;;;;7.92;66.72;103356.81;5249354;28;20409;-47
2022/01/15 00:35:48;;;;;;;102.53;49.67;;;;;;;7.91;66.72;103355.09;5243868;28;20459;-44
2022/01/15 00:38:20;;;;;;;98.05;49.30;;;;;;;7.89;66.71;103355.16;5241530;28;20428;-44
2022/01/15 00:40:52;;;;;;;97.82;45.78;;;;;;;7.85;66.79;103354.47;5250858;28;20418;-46
2022/01/15 00:43:25;;;;;;;92.72;44.60;;;;;;;7.80;66.87;103352.94;5248140;28;20432;-48
2022/01/15 00:45:58;;;;;;;104.50;47.35;;;;;;;7.81;66.82;103352.06;5242576;28;20404;-44
2022/01/15 00:48:31;;;;;;;100.80;46.88;;;;;;;7.80;66.88;103353.84;5244559;28;20860;-44
2022/01/15 00:51:04;;;;;;;102.25;44.70;;;;;;;7.82;66.75;103351.97;5248978;28;20751;-45
2022/01/15 00:53:36;;;;;;;100.13;45.88;;;;;;;7.88;66.90;103347.34;5243208;28;20421;-45
2022/01/15 00:56:09;;;;;;;96.63;45.85;;;;;;;7.92;66.62;103343.66;5238043;28;20764;-44
2022/01/15 00:58:56;;;;;;;101.95;44.83;;;;;;;7.92;66.64;103343.66;5245978;28;20524;-45
2022/01/15 01:01:29;;;;;;;103.78;46.03;;;;;;;7.81;66.85;103341.53;5241558;28;20411;-45
2022/01/15 01:04:03;;;;;;;115.55;47.80;;;;;;;7.83;66.77;103344.91;5245558;28;20415;-44
2022/01/15 01:06:35;;;;;;;107.82;47.30;;;;;;;7.83;66.80;103343.16;5248525;28;20421;-44
2022/01/15 01:09:07;;;;;;;116.20;45.38;;;;;;;7.83;66.80;103335.28;5242371;28;20406;-47
2022/01/15 01:11:46;;;;;;;107.00;43.50;;;;;;;7.83;66.70;103332.66;5246333;28;20765;-43
2022/01/15 01:20:09;;;;;;;99.82;41.88;;;;;;;7.69;67.03;103332.41;5247048;28;21125;-42
2022/01/15 01:22:55;;;;;;;91.18;36.47;;;;;;;7.65;67.04;103325.59;5229724;28;20844;-44
2022/01/15 01:25:34;;;;;;;86.28;37.03;;;;;;;7.58;67.06;103319.72;5247636;28;20478;-45
2022/01/15 01:28:11;;;;;;;101.65;37.88;;;;;;;7.53;67.04;103320.88;5245426;28;20410;-46
2022/01/15 01:30:48;;;;;;;87.43;36.35;;;;;;;7.48;67.24;103312.34;5244566;28;20414;-44
2022/01/15 01:33:32;;;;;;;83.80;32.53;;;;;;;7.43;67.33;103324.81;5245072;28;20885;-44
2022/01/15 01:36:20;;;;;;;84.30;32.05;;;;;;;7.41;67.73;103324.06;5242866;28;20901;-45
2022/01/15 01:38:55;;;;;;;96.50;35.35;;;;;;;7.43;67.12;103314.31;5243139;28;20431;-44
2022/01/15 01:41:37;;;;;;;76.43;29.63;;;;;;;7.42;67.14;103317.88;5237018;28;20409;-44
2022/01/15 01:44:16;;;;;;;64.00;28.35;;;;;;;7.39;67.25;103317.06;5242760;28;20412;-48
2022/01/15 01:46:53;;;;;;;64.50;25.65;;;;;;;7.39;67.07;103319.72;5242469;28;20421;-43
2022/01/15 01:49:25;;;;;;;51.03;22.60;;;;;;;7.37;67.18;103321.56;5250009;28;20798;-44
2022/01/15 01:51:59;;;;;;;53.75;22.13;;;;;;;7.33;67.30;103314.72;5244645;28;20432;-44
2022/01/15 01:54:32;;;;;;;50.53;20.90;;;;;;;7.27;67.27;103307.09;5243214;28;20435;-45
2022/01/15 01:57:05;;;;;;;49.45;20.88;;;;;;;7.30;67.20;103320.13;5234713;28;20477;-45
2022/01/15 01:59:38;;;;;;;44.38;22.30;;;;;;;7.32;67.21;103307.75;5238709;28;20394;-46
2022/01/15 02:02:10;;;;;;;53.58;24.13;;;;;;;7.30;67.30;103306.97;5241622;28;21177;-47
2022/01/15 02:04:43;;;;;;;61.72;24.92;;;;;;;7.31;67.33;103306.06;5243111;28;20667;-44
2022/01/15 02:07:16;;;;;;;62.78;26.95;;;;;;;7.29;67.24;103297.38;5243614;28;20756;-45
2022/01/15 02:09:49;;;;;;;56.00;27.33;;;;;;;7.22;67.38;103290.69;5244561;28;20425;-45
2022/01/15 02:12:21;;;;;;;62.63;26.98;;;;;;;7.11;67.51;103282.44;5239477;28;21518;-45
2022/01/15 02:14:53;;;;;;;63.93;28.27;;;;;;;7.20;67.45;103294.31;5246668;28;20422;-44
2022/01/15 02:17:26;;;;;;;62.77;25.63;;;;;;;7.18;67.51;103294.38;5241567;28;20417;-43
2022/01/15 02:20:22;;;;;;;56.55;25.90;;;;;;;7.12;67.49;103281.50;5243686;28;20410;-42
2022/01/15 02:25:49;;;;;;;56.33;23.58;;;;;;;7.16;67.46;103276.06;5248755;28;20413;-43
2022/01/15 02:28:23;;;;;;;52.03;21.02;;;;;;;7.19;67.51;103275.06;5239670;28;20426;-44
2022/01/15 02:30:58;;;;;;;47.60;20.75;;;;;;;7.21;67.44;103269.72;5248123;28;20422;-44
2022/01/15 02:33:30;;;;;;;52.35;21.35;;;;;;;7.21;67.42;103267.94;5241158;28;20422;-44
2022/01/15 02:36:09;;;;;;;47.97;20.80;;;;;;;7.16;67.62;103268.16;5237527;28;20416;-44
2022/01/15 02:38:43;;;;;;;53.30;22.13;;;;;;;7.20;67.47;103255.75;5240901;28;20408;-44
2022/01/15 02:41:24;;;;;;;51.03;22.23;;;;;;;7.22;67.43;103259.16;5245933;28;20420;-43
2022/01/15 02:43:58;;;;;;;52.85;21.55;;;;;;;7.28;67.46;103251.00;5242574;28;20436;-45
2022/01/15 02:48:00;;;;;;;54.45;22.02;;;;;;;7.28;67.32;103243.13;5243513;28;20937;-44
2022/01/15 02:49:29;;;;;;;41.13;20.85;;;;;;;7.26;67.55;103242.31;5238103;28;20418;-43
2022/01/15 02:52:03;;;;;;;40.20;19.90;;;;;;;7.20;67.50;103239.97;5242125;28;20426;-43
2022/01/15 02:54:35;;;;;;;43.90;20.60;;;;;;;7.16;67.54;103246.28;5245725;28;20404;-45
2022/01/15 02:57:07;;;;;;;45.80;22.08;;;;;;;7.15;67.80;103247.19;5238916;28;20489;-45
2022/01/15 02:59:41;;;;;;;43.40;23.00;;;;;;;7.17;67.71;103242.75;5243186;28;20405;-44
2022/01/15 03:02:13;;;;;;;41.33;22.23;;;;;;;7.17;67.72;103234.84;5243761;28;20448;-55
2022/01/15 03:04:45;;;;;;;44.13;21.57;;;;;;;7.13;67.68;103228.03;5248768;28;20551;-47
2022/01/15 03:07:19;;;;;;;50.35;22.17;;;;;;;7.08;67.78;103224.75;5242220;28;20412;-44
2022/01/15 03:09:51;;;;;;;46.60;21.70;;;;;;;7.09;67.70;103226.44;5244498;28;20422;-43
2022/01/15 03:12:24;;;;;;;50.03;22.75;;;;;;;7.09;67.74;103222.06;5244460;28;20398;-44
2022/01/15 03:15:00;;;;;;;47.50;22.38;;;;;;;7.11;67.77;103222.00;5247598;28;20406;-45
2022/01/15 03:17:33;;;;;;;51.97;23.15;;;;;;;7.12;67.76;103211.44;5244614;28;20992;-45
2022/01/15 03:20:07;;;;;;;45.15;21.33;;;;;;;7.13;67.80;103214.91;5243570;28;20405;-46
2022/01/15 03:22:42;;;;;;;37.05;18.58;;;;;;;7.12;67.74;103213.16;5237481;28;20421;-46
2022/01/15 03:25:16;;;;;;;38.33;18.27;;;;;;;6.99;67.96;103193.63;5246413;28;20431;-44
2022/01/15 03:27:48;;;;;;;39.78;18.08;;;;;;;7.00;67.88;103197.97;5241621;28;20426;-47
2022/01/15 03:30:20;;;;;;;41.40;19.67;;;;;;;6.98;67.95;103199.81;5244862;28;20436;-44
2022/01/15 03:32:52;;;;;;;40.42;18.77;;;;;;;6.96;67.72;103196.41;5246207;28;21122;-44
2022/01/15 03:35:25;;;;;;;41.33;20.00;;;;;;;6.98;68.02;103189.31;5244290;28;20831;-45
2022/01/15 03:37:59;;;;;;;41.08;19.83;;;;;;;6.99;67.91;103191.00;5236948;28;20406;-44
2022/01/15 03:40:32;;;;;;;40.08;20.60;;;;;;;7.01;67.73;103176.03;5246107;28;20473;-44
2022/01/15 03:43:06;;;;;;;41.50;21.20;;;;;;;7.03;67.90;103174.16;5245695;28;20461;-45
2022/01/15 03:45:39;;;;;;;39.58;19.33;;;;;;;7.03;67.83;103182.94;5239353;28;20622;-46
2022/01/15 03:48:11;;;;;;;48.53;20.98;;;;;;;6.99;67.92;103193.63;5247776;28;20431;-47
2022/01/15 03:50:44;;;;;;;49.13;22.83;;;;;;;6.92;67.96;103188.66;5252189;28;20410;-44
2022/01/15 03:53:20;;;;;;;57.42;24.38;;;;;;;6.86;68.13;103182.81;5240114;28;20418;-44
2022/01/15 03:55:52;;;;;;;48.80;24.23;;;;;;;6.58;68.24;103133.28;5254630;28;20424;-44
2022/01/15 03:58:25;;;;;;;61.83;26.85;;;;;;;6.80;68.10;103172.59;5249701;28;20904;-44
2022/01/15 04:00:57;;;;;;;61.28;27.20;;;;;;;6.77;68.18;103178.81;5249488;28;21355;-47
2022/01/15 04:03:29;;;;;;;69.63;28.98;;;;;;;6.45;68.36;103136.47;5238911;28;20403;-47
2022/01/15 04:06:02;;;;;;;68.38;31.25;;;;;;;6.68;68.30;103174.81;5250774;28;20491;-46
2022/01/15 04:08:36;;;;;;;79.47;31.75;;;;;;;6.73;68.22;103168.53;5245373;28;20393;-44
2022/01/15 04:11:08;;;;;;;76.20;32.58;;;;;;;6.71;68.19;103160.72;5243235;28;20416;-47
2022/01/15 04:13:40;;;;;;;84.60;33.42;;;;;;;6.73;68.31;103166.75;5246721;28;20771;-49
2022/01/15 04:16:13;;;;;;;80.10;32.05;;;;;;;6.73;68.18;103169.38;5250272;28;20422;-44
2022/01/15 04:18:45;;;;;;;84.72;34.75;;;;;;;6.74;68.21;103162.34;5247285;28;20880;-44
2022/01/15 04:21:17;;;;;;;97.45;36.22;;;;;;;6.71;68.21;103152.84;5249090;28;20971;-44
2022/01/15 04:23:51;;;;;;;88.55;37.42;;;;;;;6.68;68.16;103152.97;5245762;28;20772;-45
2022/01/15 04:26:25;;;;;;;86.45;35.70;;;;;;;6.67;68.40;103161.78;5243516;28;20426;-50
2022/01/15 04:29:02;;;;;;;93.60;37.97;;;;;;;6.67;68.28;103164.41;5236600;28;20534;-45
2022/01/15 04:31:46;;;;;;;95.13;35.60;;;;;;;6.70;68.21;103157.22;5244486;28;20432;-48
2022/01/15 04:34:21;;;;;;;94.57;37.22;;;;;;;6.67;68.29;103160.00;5241410;28;20806;-44
2022/01/15 04:36:59;;;;;;;95.65;37.50;;;;;;;6.66;68.39;103146.94;5246916;28;20492;-44
2022/01/15 04:39:33;;;;;;;100.28;38.45;;;;;;;6.68;68.35;103143.31;5246427;28;20398;-44
2022/01/15 04:42:05;;;;;;;95.85;37.30;;;;;;;6.67;68.28;103152.13;5241786;28;20484;-49
2022/01/15 04:44:38;;;;;;;92.70;36.47;;;;;;;6.67;68.40;103151.28;5248253;28;20436;-48
2022/01/15 04:47:10;;;;;;;104.30;40.17;;;;;;;6.65;68.49;103143.44;5248837;28;20406;-44
2022/01/15 04:49:43;;;;;;;110.73;42.17;;;;;;;6.66;68.51;103128.56;5242983;28;20927;-46
2022/01/15 04:52:15;;;;;;;89.10;38.97;;;;;;;6.63;68.31;103136.59;5242836;28;20425;-43
2022/01/15 04:54:49;;;;;;;81.25;35.65;;;;;;;6.57;68.49;103135.06;5242152;28;20619;-46
2022/01/15 04:57:21;;;;;;;90.40;37.30;;;;;;;6.54;68.56;103129.97;5246865;28;20428;-45
2022/01/15 04:59:54;;;;;;;99.85;38.75;;;;;;;6.52;68.58;103120.44;5245524;28;20426;-44
2022/01/15 05:02:26;;;;;;;82.45;33.00;;;;;;;6.46;68.67;103122.41;5246016;28;20414;-49
2022/01/15 05:04:58;;;;;;;84.85;34.97;;;;;;;6.40;68.76;103127.91;5250669;28;20403;-46
2022/01/15 05:07:30;;;;;;;82.18;33.22;;;;;;;6.33;68.81;103123.84;5242221;28;20484;-44
2022/01/15 05:10:05;;;;;;;91.18;34.45;;;;;;;6.32;68.91;103130.03;5243907;28;20418;-50
2022/01/15 05:12:43;;;;;;;88.57;34.22;;;;;;;6.29;68.84;103103.94;5242828;28;20435;-48
2022/01/15 05:15:18;;;;;;;122.65;37.90;;;;;;;6.30;68.82;103110.03;5241695;28;20767;-45
2022/01/15 05:17:52;;;;;;;101.10;37.13;;;;;;;6.31;68.74;103111.72;5249570;28;20542;-44
2022/01/15 05:20:24;;;;;;;102.35;37.85;;;;;;;6.30;68.69;103097.75;5248969;28;20414;-43
2022/01/15 05:22:56;;;;;;;108.75;40.08;;;;;;;6.30;68.78;103095.13;5244742;28;20871;-43
2022/01/15 05:25:30;;;;;;;111.20;39.17;;;;;;;6.31;68.65;103093.34;5243980;28;20434;-44
2022/01/15 05:28:03;;;;;;;104.57;37.00;;;;;;;6.31;68.57;103096.81;5245338;28;20394;-48
2022/01/15 05:30:35;;;;;;;95.18;34.30;;;;;;;6.30;68.75;103105.63;5246228;28;20406;-42
2022/01/15 05:33:07;;;;;;;89.53;32.85;;;;;;;6.26;68.77;103098.81;5241078;28;20486;-46
2022/01/15 05:35:40;;;;;;;91.22;35.13;;;;;;;6.21;68.76;103090.28;5240353;28;20404;-44
2022/01/15 05:38:12;;;;;;;86.00;32.80;;;;;;;6.22;68.89;103087.59;5244290;28;20412;-44
2022/01/15 05:40:46;;;;;;;84.07;30.88;;;;;;;6.18;68.86;103077.28;5248401;28;20420;-45
2022/01/15 05:43:18;;;;;;;113.18;32.75;;;;;;;6.11;69.08;103079.31;5242572;28;20424;-47
2022/01/15 05:45:51;;;;;;;84.75;34.05;;;;;;;6.14;69.06;103078.34;5238555;28;20835;-44
2022/01/15 05:48:23;;;;;;;90.53;32.75;;;;;;;6.11;68.88;103078.47;5250544;28;20412;-43
2022/01/15 05:50:55;;;;;;;91.38;34.30;;;;;;;6.13;68.97;103076.63;5240466;28;20422;-49
2022/01/15 05:53:27;;;;;;;116.25;35.65;;;;;;;6.14;68.90;103081.81;5246063;28;21168;-43
2022/01/15 05:56:01;;;;;;;96.33;33.13;;;;;;;6.10;68.83;103071.50;5241520;28;20411;-45
2022/01/15 05:58:39;;;;;;;100.28;33.92;;;;;;;6.06;68.60;103055.06;5241430;28;20397;-46
2022/01/15 06:01:12;;;;;;;112.97;35.88;;;;;;;6.09;68.78;103054.06;5245090;28;20398;-54
2022/01/15 06:03:44;;;;;;;118.93;34.40;;;;;;;6.09;68.67;103054.06;5242328;28;20410;-43
2022/01/15 06:06:16;;;;;;;122.60;36.35;;;;;;;6.07;68.73;103045.41;5241692;28;20467;-45
2022/01/15 06:08:49;;;;;;;113.53;35.80;;;;;;;6.07;68.82;103050.66;5242202;28;20440;-45
2022/01/15 06:11:24;;;;;;;106.70;34.97;;;;;;;6.02;68.87;103044.78;5246123;28;20428;-45
2022/01/15 06:13:57;;;;;;;109.93;34.40;;;;;;;6.04;68.79;103040.28;5243568;28;20925;-45
2022/01/15 06:16:29;;;;;;;100.88;34.72;;;;;;;6.05;68.93;103044.63;5245326;28;20426;-48
2022/01/15 06:19:01;;;;;;;106.45;34.33;;;;;;;6.00;68.65;103043.03;5242022;28;20408;-45
2022/01/15 06:21:34;;;;;;;111.97;34.85;;;;;;;6.02;69.13;103042.16;5239016;28;20402;-45
2022/01/15 06:24:07;;;;;;;92.32;28.85;;;;;;;6.08;68.81;103047.97;5248642;28;20412;-44
2022/01/15 06:26:41;;;;;;;82.63;30.80;;;;;;;6.03;68.93;103036.81;5240834;28;20426;-44
2022/01/15 06:29:13;;;;;;;110.72;32.13;;;;;;;6.05;68.88;103040.25;5246541;28;20771;-44
2022/01/15 06:31:46;;;;;;;90.18;30.77;;;;;;;6.07;68.83;103046.28;5242524;28;20419;-44
2022/01/15 06:34:18;;;;;;;105.47;29.73;;;;;;;6.09;68.86;103039.19;5243465;28;20938;-43
2022/01/15 06:36:50;;;;;;;105.10;30.08;;;;;;;6.11;68.83;103039.13;5235012;28;20425;-43
2022/01/15 06:39:23;;;;;;;96.10;29.02;;;;;;;6.07;68.81;103037.53;5243439;28;20428;-43
2022/01/15 06:41:56;;;;;;;90.97;29.00;;;;;;;6.03;68.85;103028.94;5241535;28;20458;-45
2022/01/15 06:44:29;;;;;;;83.32;27.65;;;;;;;5.98;68.97;103031.78;5244226;28;20398;-44
2022/01/15 06:47:01;;;;;;;89.03;27.92;;;;;;;5.94;69.08;103027.56;5245825;28;20473;-48
2022/01/15 06:49:33;;;;;;;118.38;30.20;;;;;;;5.94;68.96;103019.69;5237597;28;20537;-43
2022/01/15 06:52:07;;;;;;;103.78;29.13;;;;;;;5.92;68.90;103021.53;5244335;28;20414;-45
2022/01/15 06:54:39;;;;;;;114.83;32.60;;;;;;;5.93;68.98;103015.38;5241329;28;20485;-45
2022/01/15 06:57:13;;;;;;;97.15;29.33;;;;;;;5.94;68.92;103018.84;5236423;28;20417;-44
2022/01/15 06:59:45;;;;;;;112.28;31.60;;;;;;;5.95;68.95;103010.94;5244392;28;20414;-45
2022/01/15 07:02:21;;;;;;;106.65;31.40;;;;;;;6.02;68.83;103013.28;5246766;28;20423;-45
2022/01/15 07:04:53;;;;;;;114.13;31.55;;;;;;;6.05;68.83;103016.63;5243346;28;20413;-44
2022/01/15 07:07:25;;;;;;;112.15;33.17;;;;;;;6.06;68.74;103017.47;5244009;28;21348;-43
2022/01/15 07:09:57;;;;;;;110.70;32.47;;;;;;;6.07;68.79;103020.03;5243156;28;21177;-43
2022/01/15 07:12:31;;;;;;;122.82;33.30;;;;;;;6.08;68.84;103015.66;5237380;28;20414;-44
2022/01/15 07:15:04;;;;;;;129.25;33.33;;;;;;;6.04;69.01;103019.31;5247704;28;20826;-44
2022/01/15 07:17:43;;;;;;;125.85;32.97;;;;;;;5.99;68.93;103020.38;5238558;28;20895;-50
2022/01/15 07:20:18;;;;;;;136.43;30.30;;;;;;;5.98;69.13;103009.97;5241770;28;20414;-44
2022/01/15 07:22:50;;;;;;;140.55;30.98;;;;;;;5.93;68.95;103007.50;5236622;28;20849;-45
2022/01/15 07:25:23;;;;;;;107.80;27.90;;;;;;;5.85;69.28;103013.97;5241976;28;20897;-46
2022/01/15 07:27:56;;;;;;;156.75;32.15;;;;;;;5.80;69.10;103008.94;5245012;28;20410;-44
2022/01/15 07:30:29;;;;;;;130.23;28.88;;;;;;;5.74;69.19;102996.94;5242489;28;20415;-45
2022/01/15 07:33:01;;;;;;;148.15;27.45;;;;;;;5.70;69.32;103000.63;5242014;28;20418;-43
2022/01/15 07:35:33;;;;;;;99.25;25.00;;;;;;;5.63;69.07;103003.53;5246198;28;20477;-45
2022/01/15 07:38:06;;;;;;;104.35;28.27;;;;;;;5.58;69.29;103002.91;5242669;28;20409;-49
2022/01/15 07:40:38;;;;;;;115.95;27.70;;;;;;;5.51;69.21;103018.88;5235891;28;20426;-47
2022/01/15 07:43:12;;;;;;;127.80;26.67;;;;;;;5.45;69.35;103016.50;5242571;28;20409;-45
2022/01/15 07:45:44;;;;;;;99.07;27.45;;;;;;;5.40;69.28;103007.97;5244163;28;20410;-44
2022/01/15 07:48:17;;;;;;;124.97;29.53;;;;;;;5.41;69.22;103003.59;5247199;28;20512;-45
2022/01/15 07:50:50;;;;;;;128.10;28.40;;;;;;;5.35;69.33;103007.31;5241520;28;20572;-44
2022/01/15 07:53:23;;;;;;;69.05;22.98;;;;;;;5.29;69.47;103012.78;5244060;28;20789;-44
2022/01/15 07:55:55;;;;;;;113.03;25.25;;;;;;;5.24;69.58;103012.16;5245427;28;20429;-44
2022/01/15 07:58:29;;;;;;;118.03;24.77;;;;;;;5.20;69.55;103007.91;5236510;28;20424;-53
2022/01/15 08:01:01;;;;;;;123.43;26.15;;;;;;;5.17;69.51;103011.53;5236407;28;20421;-49
2022/01/15 08:03:34;;;;;;;131.15;26.38;;;;;;;5.19;69.65;103019.31;5233789;28;20427;-48
2022/01/15 08:06:08;;;;;;;156.48;28.05;;;;;;;5.16;69.49;103014.22;5243562;28;20428;-49
2022/01/15 08:08:41;;;;;;;134.10;27.30;;;;;;;5.14;69.46;103010.78;5239135;28;20426;-44
2022/01/15 08:11:13;;;;;;;120.20;30.55;;;;;;;5.16;69.62;103015.06;5246259;28;20427;-45
2022/01/15 08:13:47;;;;;;;128.35;29.33;;;;;;;5.21;69.49;103012.28;5239152;28;20424;-52
2022/01/15 08:16:19;;;;;;;132.98;32.55;;;;;;;5.27;69.23;103019.88;5250124;28;20939;-44
2022/01/15 08:18:51;;;;;;;120.57;32.60;;;;;;;5.34;69.29;103021.34;5244908;28;20426;-44
2022/01/15 08:21:24;;;;;;;143.80;36.20;;;;;;;5.40;69.26;103015.84;5244455;28;20418;-44
2022/01/15 08:23:56;;;;;;;125.82;34.95;;;;;;;5.43;69.34;103025.34;5247090;28;20406;-46
2022/01/15 08:26:28;;;;;;;121.30;31.98;;;;;;;5.42;69.40;103032.38;5247120;28;20413;-46
2022/01/15 08:29:02;;;;;;;107.10;30.55;;;;;;;5.40;69.28;103026.31;5242909;28;20394;-45
2022/01/15 08:31:34;;;;;;;107.82;30.55;;;;;;;5.18;69.44;102988.81;5251559;28;20406;-46
2022/01/15 08:34:07;;;;;;;73.15;26.67;;;;;;;5.39;69.36;103031.59;5248798;28;20398;-44
2022/01/15 08:36:39;;;;;;;77.60;25.20;;;;;;;5.37;69.39;103026.44;5250496;28;20417;-50
2022/01/15 08:39:11;;;;;;;84.33;28.03;;;;;;;5.26;69.47;103019.00;5249811;28;20744;-44
2022/01/15 08:41:48;;;;;;;91.15;26.95;;;;;;;5.38;69.48;103015.03;5249064;28;20422;-44
2022/01/15 08:44:24;;;;;;;83.85;28.30;;;;;;;5.32;69.45;103015.28;5251020;28;20771;-45
2022/01/15 08:46:57;;;;;;;104.90;27.27;;;;;;;5.31;69.36;103018.84;5252691;28;20965;-45
2022/01/15 08:49:29;;;;;;;105.03;25.02;;;;;;;5.25;69.37;103008.59;5250902;28;20393;-44
2022/01/15 08:52:01;;;;;;;80.65;25.88;;;;;;;5.11;69.63;102995.19;5253134;28;20402;-43
2022/01/15 08:54:34;;;;;;;102.75;31.30;;;;;;;5.16;69.54;103011.59;5249255;28;20885;-45
2022/01/15 08:57:07;;;;;;;105.50;30.65;;;;;;;5.17;69.65;103015.91;5250506;28;20402;-45
2022/01/15 08:59:40;;;;;;;96.57;29.50;;;;;;;5.16;69.52;103008.97;5243969;28;20590;-47
2022/01/15 09:02:13;;;;;;;91.13;29.85;;;;;;;5.17;69.48;103005.44;5247306;28;20408;-44
2022/01/15 09:04:45;;;;;;;83.18;29.90;;;;;;;5.17;69.51;103006.31;5240091;28;20422;-49
2022/01/15 09:07:17;;;;;;;109.53;28.02;;;;;;;5.15;69.50;103002.88;5239505;28;20414;-46
2022/01/15 09:09:50;;;;;;;117.33;30.87;;;;;;;5.14;69.67;102984.59;5245460;28;20402;-44
2022/01/15 09:12:23;;;;;;;101.05;31.65;;;;;;;5.16;69.50;102993.25;5253317;28;20406;-43
2022/01/15 09:14:58;;;;;;;99.57;33.27;;;;;;;5.17;69.68;102989.72;5244831;28;20523;-43
2022/01/15 09:17:31;;;;;;;115.57;33.53;;;;;;;5.21;69.61;103001.78;5243027;28;20408;-46
2022/01/15 09:20:05;;;;;;;109.60;33.75;;;;;;;5.22;69.46;102998.25;5248004;28;20419;-45
2022/01/15 09:22:37;;;;;;;95.13;32.83;;;;;;;5.23;69.52;102999.94;5238987;28;20830;-43
2022/01/15 09:25:11;;;;;;;101.70;33.58;;;;;;;5.23;69.55;103011.31;5234331;28;20426;-44
2022/01/15 09:30:35;;;;;;;99.00;36.00;;;;;;;5.20;69.65;103000.94;5237880;28;20404;-45
2022/01/15 09:33:07;;;;;;;102.78;35.30;;;;;;;5.23;69.62;103000.81;5234510;28;20400;-44
2022/01/15 09:35:40;;;;;;;90.25;32.20;;;;;;;5.23;69.64;102997.31;5237508;28;20402;-44
2022/01/15 09:38:15;;;;;;;99.22;35.00;;;;;;;5.21;69.72;102991.31;5246029;28;20516;-43
2022/01/15 09:40:47;;;;;;;97.30;34.67;;;;;;;5.23;69.54;102984.22;5248572;28;20879;-49
2022/01/15 09:43:19;;;;;;;115.03;37.47;;;;;;;5.22;69.53;102987.78;5251833;28;20420;-44
2022/01/15 09:45:54;;;;;;;114.30;37.65;;;;;;;5.21;69.54;102981.69;5250628;28;20887;-46
2022/01/15 09:48:29;;;;;;;127.97;38.97;;;;;;;5.22;69.59;102980.75;5249734;28;20884;-43
2022/01/15 09:51:02;;;;;;;114.73;40.63;;;;;;;5.26;69.71;102979.72;5247578;28;20468;-44
2022/01/15 09:53:35;;;;;;;111.45;40.20;;;;;;;5.29;69.70;102973.50;5250472;28;20422;-44
2022/01/15 09:56:09;;;;;;;111.60;37.35;;;;;;;5.34;69.59;102970.69;5239533;28;20411;-44
2022/01/15 09:58:41;;;;;;;105.15;36.83;;;;;;;5.32;69.41;102963.72;5246320;28;20425;-44
2022/01/15 10:01:15;;;;;;;109.10;38.72;;;;;;;5.38;69.52;102967.03;5253007;28;20870;-44
2022/01/15 10:03:48;;;;;;;117.13;39.25;;;;;;;5.39;69.48;102964.34;5231352;28;20500;-48
2022/01/15 10:06:20;;;;;;;93.43;35.50;;;;;;;5.41;69.61;102962.50;5230509;28;20840;-43
2022/01/15 10:09:04;;;;;;;106.15;37.70;;;;;;;5.38;69.59;102965.25;5238079;28;20402;-44
2022/01/15 10:11:45;;;;;;;108.25;40.80;;;;;;;5.41;69.63;102965.13;5238171;28;20414;-45
2022/01/15 10:14:26;;;;;;;111.40;41.08;;;;;;;5.47;69.52;102966.66;5236766;28;20406;-44
2022/01/15 10:17:03;;;;;;;97.47;37.53;;;;;;;5.46;69.53;102957.09;5237781;28;20614;-45
2022/01/15 10:19:38;;;;;;;111.30;44.42;;;;;;;5.52;69.54;102965.53;5233937;28;20905;-44
2022/01/15 10:22:12;;;;;;;100.57;38.80;;;;;;;5.54;69.58;102963.72;5247745;28;20498;-44
2022/01/15 10:24:55;;;;;;;97.55;37.45;;;;;;;5.58;69.49;102955.72;5248894;28;20515;-46
2022/01/15 10:27:31;;;;;;;93.63;37.42;;;;;;;5.57;69.49;102951.38;5249122;28;20441;-44
2022/01/15 10:30:08;;;;;;;96.78;36.15;;;;;;;5.57;69.58;102962.72;5243332;28;20411;-44
2022/01/15 10:32:54;;;;;;;113.35;37.50;;;;;;;5.54;69.56;102958.47;5234256;28;20418;-44
2022/01/15 10:35:31;;;;;;;103.10;36.83;;;;;;;5.61;69.51;102964.31;5236291;28;20416;-46
2022/01/15 10:38:07;;;;;;;80.78;32.60;;;;;;;5.64;69.70;102968.56;5242973;28;20895;-45
2022/01/15 10:40:42;;;;;;;93.80;33.65;;;;;;;5.60;69.55;102961.72;5242404;28;20404;-45
2022/01/15 10:43:17;;;;;;;92.22;37.50;;;;;;;5.64;69.70;102958.09;5248296;28;20415;-45
2022/01/15 10:45:52;;;;;;;82.03;33.63;;;;;;;5.69;69.68;102956.09;5250417;28;20418;-45
2022/01/15 10:48:31;;;;;;;83.82;33.53;;;;;;;5.71;69.65;102951.66;5245740;28;20851;-47
2022/01/15 10:51:06;;;;;;;82.93;32.60;;;;;;;5.78;69.60;102939.97;5247564;28;20428;-46
2022/01/15 10:53:42;;;;;;;81.90;31.65;;;;;;;5.83;69.58;102927.53;5237502;28;20504;-48
2022/01/15 10:56:17;;;;;;;80.85;32.47;;;;;;;5.85;69.81;102935.31;5243975;28;20405;-44
2022/01/15 10:59:10;;;;;;;77.05;31.48;;;;;;;5.88;69.53;102928.16;5246178;28;21198;-47
2022/01/15 11:01:42;;;;;;;79.57;32.15;;;;;;;5.89;69.55;102921.16;5246726;28;20804;-43
2022/01/15 11:04:34;;;;;;;68.72;26.80;;;;;;;5.90;69.55;102923.69;5246266;28;20419;-43
2022/01/15 11:07:12;;;;;;;73.32;28.80;;;;;;;5.94;69.58;102925.28;5245679;28;20432;-44
2022/01/15 11:09:46;;;;;;;63.08;27.65;;;;;;;5.93;69.20;102928.84;5242457;28;20409;-46
2022/01/15 11:12:19;;;;;;;66.78;28.90;;;;;;;5.90;69.64;102917.59;5246076;28;20410;-44
2022/01/15 11:14:52;;;;;;;69.00;29.13;;;;;;;5.86;69.83;102914.28;5250146;28;20946;-43
2022/01/15 11:17:25;;;;;;;68.43;28.20;;;;;;;5.83;69.71;102917.03;5247265;28;20907;-45
2022/01/15 11:20:00;;;;;;;80.45;29.55;;;;;;;5.85;69.85;102914.31;5243502;28;20417;-43
2022/01/15 11:22:35;;;;;;;88.75;31.65;;;;;;;5.87;69.79;102910.72;5240696;28;20399;-44
2022/01/15 11:25:08;;;;;;;82.75;32.63;;;;;;;5.94;69.71;102909.53;5247440;28;20414;-42
2022/01/15 11:27:41;;;;;;;89.72;37.15;;;;;;;5.99;69.69;102907.56;5243746;28;20400;-45
2022/01/15 11:30:14;;;;;;;84.00;33.42;;;;;;;6.05;69.71;102895.13;5240576;28;20768;-44
2022/01/15 11:32:47;;;;;;;81.85;35.30;;;;;;;6.08;69.83;102894.97;5243640;28;20496;-44
2022/01/15 11:35:20;;;;;;;80.63;34.45;;;;;;;6.10;69.65;102890.50;5242740;28;20416;-44
2022/01/15 11:37:54;;;;;;;75.67;34.80;;;;;;;6.13;69.75;102896.47;5240734;28;20583;-44
2022/01/15 11:40:46;;;;;;;67.83;32.40;;;;;;;6.12;69.57;102875.53;5241229;28;20809;-44
2022/01/15 11:43:45;;;;;;;82.10;34.35;;;;;;;6.18;69.73;102877.88;5242900;28;20402;-44
2022/01/15 11:46:30;;;;;;;85.77;34.67;;;;;;;6.22;69.71;102882.94;5196784;28;20414;-44
2022/01/15 11:49:44;;;;;;;69.30;31.80;;;;;;;6.19;69.71;102882.19;5247547;28;20508;-44
2022/01/15 11:52:35;;;;;;;68.72;28.17;;;;;;;6.13;69.84;102880.75;5231043;28;20802;-44
2022/01/15 11:55:18;;;;;;;68.57;29.33;;;;;;;6.09;69.97;102879.16;5249395;28;20400;-42
2022/01/15 11:57:58;;;;;;;71.65;30.40;;;;;;;6.06;70.01;102865.34;5250341;28;20818;-43
2022/01/15 12:00:42;;;;;;;73.93;31.13;;;;;;;6.05;70.08;102863.63;5248754;28;20439;-43